Time;durP1;ratioP1;P1;durP2;ratioP2;P2;SDS_P1;SDS_P2;PMS_P1;PMS_P2;Temp;Humidity;BMP_temperature;BMP_pressure;BME280_temperature;BME280_humidity;BME280_pressure;Samples;Min_cycle;Max_cycle;Signal;HPM_P1;HPM_P2
2022/01/21 00:01:20;;;;;;;;;10.00;10.00;;;;;-146.25;100.00;57879.81;5056525;28;46045;-74
2022/01/21 00:03:46;;;;;;;;;12.25;11.25;;;;;-146.25;100.00;57879.81;5057742;28;45608;-76
2022/01/21 00:06:12;;;;;;;;;10.00;9.25;;;;;-146.25;100.00;57879.81;5057555;28;45478;-76
2022/01/21 00:08:40;;;;;;;;;11.00;9.25;;;;;-146.25;100.00;57879.81;5057786;28;45489;-78
2022/01/21 00:11:07;;;;;;;;;16.50;14.25;;;;;-146.25;100.00;57879.81;5055409;28;45400;-79
2022/01/21 00:13:36;;;;;;;;;10.00;10.00;;;;;-146.25;100.00;57879.81;5057537;28;45584;-74
2022/01/21 00:16:10;;;;;;;;;11.00;9.25;;;;;-146.25;100.00;57879.81;5057836;28;45768;-75
2022/01/21 00:18:38;;;;;;;;;8.50;8.25;;;;;-146.25;100.00;57879.81;5057723;28;45555;-73
2022/01/21 00:32:04;;;;;;;;;12.25;11.00;;;;;-146.25;100.00;57879.81;5056875;28;45460;-74
2022/01/21 00:34:30;;;;;;;;;12.75;11.75;;;;;-146.25;100.00;57879.81;5056980;28;45568;-73
2022/01/21 00:36:55;;;;;;;;;14.00;13.25;;;;;-146.25;100.00;57879.81;5057235;28;45390;-74
2022/01/21 00:39:24;;;;;;;;;15.25;12.50;;;;;-146.25;100.00;57879.81;5057692;28;45447;-73
2022/01/21 00:42:14;;;;;;;;;13.00;12.00;;;;;-146.25;100.00;57879.81;5057193;28;45966;-73
2022/01/21 00:44:39;;;;;;;;;16.75;16.00;;;;;-146.25;100.00;57879.81;5056223;28;45417;-77
2022/01/21 00:47:05;;;;;;;;;16.25;14.75;;;;;-146.25;100.00;57879.81;5057004;28;45493;-77
2022/01/21 00:49:32;;;;;;;;;16.25;16.00;;;;;-146.25;100.00;57879.81;5057248;28;45447;-77
2022/01/21 00:51:57;;;;;;;;;14.75;12.75;;;;;-146.25;100.00;57879.81;5056737;28;46029;-77
2022/01/21 00:54:23;;;;;;;;;11.50;11.00;;;;;-146.25;100.00;57879.81;5057106;28;45472;-77
2022/01/21 00:56:49;;;;;;;;;18.00;17.00;;;;;-146.25;100.00;57879.81;5056844;28;45365;-78
2022/01/21 00:59:14;;;;;;;;;15.00;12.00;;;;;-146.25;100.00;57879.81;5057075;28;45402;-73
2022/01/21 01:01:40;;;;;;;;;15.75;13.50;;;;;-146.25;100.00;57879.81;5056267;28;45933;-74
2022/01/21 01:04:06;;;;;;;;;16.00;12.50;;;;;-146.25;100.00;57879.81;5056775;28;45481;-73
2022/01/21 01:06:32;;;;;;;;;15.75;13.25;;;;;-146.25;100.00;57879.81;5056781;28;45501;-74
2022/01/21 01:08:58;;;;;;;;;16.25;15.25;;;;;-146.25;100.00;57879.81;5056767;28;45450;-74
2022/01/21 01:22:07;;;;;;;;;16.00;15.00;;;;;-146.25;100.00;57879.81;5053985;28;45452;-75
2022/01/21 01:29:58;;;;;;;;;14.00;12.50;;;;;-146.25;100.00;57879.81;5067616;28;44734;-74
2022/01/21 01:32:26;;;;;;;;;17.75;15.25;;;;;-146.25;100.00;57879.81;5066309;28;45046;-73
2022/01/21 01:34:52;;;;;;;;;16.00;15.50;;;;;-146.25;100.00;57879.81;5069263;28;45397;-72
2022/01/21 01:40:29;;;;;;;;;17.00;14.25;;;;;-146.25;100.00;57879.81;5034714;28;45589;-73
2022/01/21 01:50:47;;;;;;;;;26.75;23.50;;;;;-146.25;100.00;57879.81;5053689;28;45303;-73
2022/01/21 01:53:15;;;;;;;;;18.50;16.75;;;;;-146.25;100.00;57879.81;5055862;28;45422;-73
2022/01/21 01:55:41;;;;;;;;;19.75;16.50;;;;;-146.25;100.00;57879.81;5056045;28;45455;-73
2022/01/21 01:58:06;;;;;;;;;17.75;14.25;;;;;-146.25;100.00;57879.81;5056018;28;45452;-73
2022/01/21 02:00:34;;;;;;;;;17.00;15.25;;;;;-146.25;100.00;57879.81;5055902;28;45391;-73
2022/01/21 02:03:11;;;;;;;;;22.00;15.25;;;;;-146.25;100.00;57879.81;5055617;28;45415;-73
2022/01/21 02:05:37;;;;;;;;;19.00;15.25;;;;;-146.25;100.00;57879.81;5055536;28;45512;-74
2022/01/21 02:08:04;;;;;;;;;16.00;15.75;;;;;-146.25;100.00;57879.81;5056122;28;45860;-73
2022/01/21 02:10:30;;;;;;;;;20.00;19.00;;;;;-146.25;100.00;57879.81;5055878;28;45562;-74
2022/01/21 02:13:05;;;;;;;;;20.00;18.50;;;;;-146.25;100.00;57879.81;5055943;28;45301;-78
2022/01/21 02:15:34;;;;;;;;;20.50;16.50;;;;;-146.25;100.00;57879.81;5053757;28;45617;-73
2022/01/21 02:23:28;;;;;;;;;18.00;17.00;;;;;-146.25;100.00;57879.81;5053096;28;45695;-73
2022/01/21 02:25:53;;;;;;;;;20.25;20.25;;;;;-146.25;100.00;57879.81;5057052;28;45375;-73
2022/01/21 02:28:19;;;;;;;;;23.50;19.25;;;;;-146.25;100.00;57879.81;5057079;28;45540;-74
2022/01/21 02:30:57;;;;;;;;;18.75;15.50;;;;;-146.25;100.00;57879.81;5057279;28;45537;-74
2022/01/21 02:33:25;;;;;;;;;27.00;20.50;;;;;-146.25;100.00;57879.81;5057167;28;46429;-73
2022/01/21 02:35:50;;;;;;;;;18.50;15.50;;;;;-146.25;100.00;57879.81;5056999;28;45558;-73
2022/01/21 02:38:16;;;;;;;;;15.25;14.50;;;;;-146.25;100.00;57879.81;5056896;28;45516;-73
2022/01/21 02:40:43;;;;;;;;;21.00;18.75;;;;;-146.25;100.00;57879.81;5057317;28;45363;-73
2022/01/21 02:43:08;;;;;;;;;19.50;18.00;;;;;-146.25;100.00;57879.81;5056658;28;45333;-73
2022/01/21 02:45:36;;;;;;;;;18.25;15.75;;;;;-146.25;100.00;57879.81;5056873;28;45497;-73
2022/01/21 02:48:04;;;;;;;;;20.75;18.00;;;;;-146.25;100.00;57879.81;5057061;28;45422;-73
2022/01/21 02:50:30;;;;;;;;;18.25;15.50;;;;;-146.25;100.00;57879.81;5057173;28;45387;-75
2022/01/21 02:53:08;;;;;;;;;20.75;17.25;;;;;-146.25;100.00;57879.81;5057384;28;45284;-73
2022/01/21 02:55:33;;;;;;;;;25.25;20.00;;;;;-146.25;100.00;57879.81;5056868;28;45499;-73
2022/01/21 02:57:59;;;;;;;;;21.75;20.75;;;;;-146.25;100.00;57879.81;5056980;28;45346;-74
2022/01/21 03:00:25;;;;;;;;;23.50;18.75;;;;;-146.25;100.00;57879.81;5057343;28;45348;-75
2022/01/21 03:02:50;;;;;;;;;21.00;18.00;;;;;-146.25;100.00;57879.81;5056628;28;45461;-76
2022/01/21 03:05:18;;;;;;;;;24.00;20.00;;;;;-146.25;100.00;57879.81;5056773;28;45332;-73
2022/01/21 03:07:44;;;;;;;;;19.75;18.00;;;;;-146.25;100.00;57879.81;5056907;28;45518;-75
2022/01/21 03:10:12;;;;;;;;;20.25;17.75;;;;;-146.25;100.00;57879.81;5056740;28;45497;-73
2022/01/21 03:12:37;;;;;;;;;21.50;18.75;;;;;-146.25;100.00;57879.81;5056315;28;45530;-73
2022/01/21 03:15:04;;;;;;;;;22.00;19.00;;;;;-146.25;100.00;57879.81;5056295;28;45393;-73
2022/01/21 03:17:29;;;;;;;;;26.25;24.25;;;;;-146.25;100.00;57879.81;5056818;28;45430;-73
2022/01/21 03:19:55;;;;;;;;;17.50;13.00;;;;;-146.25;100.00;57879.81;5057138;28;46034;-72
2022/01/21 03:22:20;;;;;;;;;23.50;18.00;;;;;-146.25;100.00;57879.81;5056314;28;45537;-73
2022/01/21 03:24:46;;;;;;;;;18.75;14.00;;;;;-146.25;100.00;57879.81;5056487;28;45476;-73
2022/01/21 03:27:11;;;;;;;;;21.25;20.00;;;;;-146.25;100.00;57879.81;5056593;28;45438;-74
2022/01/21 03:29:38;;;;;;;;;20.75;13.75;;;;;-146.25;100.00;57879.81;5056770;28;45382;-73
2022/01/21 03:32:04;;;;;;;;;23.25;17.75;;;;;-146.25;100.00;57879.81;5056477;28;46053;-73
2022/01/21 03:34:31;;;;;;;;;21.00;17.75;;;;;-146.25;100.00;57879.81;5056303;28;45503;-73
2022/01/21 03:36:56;;;;;;;;;24.25;21.25;;;;;-146.25;100.00;57879.81;5060333;28;45490;-73
2022/01/21 03:39:22;;;;;;;;;22.25;20.75;;;;;-146.25;100.00;57879.81;5060217;28;45483;-74
2022/01/21 03:41:47;;;;;;;;;23.75;20.00;;;;;-146.25;100.00;57879.81;5059628;28;46023;-73
2022/01/21 03:44:13;;;;;;;;;21.00;18.25;;;;;-146.25;100.00;57879.81;5059690;28;45551;-72
2022/01/21 03:46:39;;;;;;;;;17.50;17.25;;;;;-146.25;100.00;57879.81;5059866;28;45312;-76
2022/01/21 03:49:07;;;;;;;;;26.75;20.50;;;;;-146.25;100.00;57879.81;5059999;28;45456;-73
2022/01/21 03:51:32;;;;;;;;;20.75;20.00;;;;;-146.25;100.00;57879.81;5059652;28;45447;-73
2022/01/21 03:53:58;;;;;;;;;24.75;21.75;;;;;-146.25;100.00;57879.81;5060070;28;45349;-72
2022/01/21 03:56:23;;;;;;;;;27.75;23.50;;;;;-146.25;100.00;57879.81;5059422;28;45236;-73
2022/01/21 03:58:49;;;;;;;;;38.50;32.25;;;;;-146.25;100.00;57879.81;5059876;28;45571;-73
2022/01/21 04:01:15;;;;;;;;;27.50;23.50;;;;;-146.25;100.00;57879.81;5059322;28;45454;-73
2022/01/21 04:03:40;;;;;;;;;30.50;23.50;;;;;-146.25;100.00;57879.81;5058042;28;45510;-73
2022/01/21 04:06:06;;;;;;;;;32.25;27.75;;;;;-146.25;100.00;57879.81;5059690;28;45302;-73
2022/01/21 04:08:32;;;;;;;;;29.00;24.25;;;;;-146.25;100.00;57879.81;5060108;28;45530;-73
2022/01/21 04:10:58;;;;;;;;;23.25;19.25;;;;;-146.25;100.00;57879.81;5059584;28;46004;-75
2022/01/21 04:13:25;;;;;;;;;18.75;18.00;;;;;-146.25;100.00;57879.81;5059206;28;45366;-74
2022/01/21 04:15:54;;;;;;;;;21.75;17.25;;;;;-146.25;100.00;57879.81;5058022;28;45337;-72
2022/01/21 04:18:22;;;;;;;;;23.50;18.25;;;;;-146.25;100.00;57879.81;5059562;28;45474;-73
2022/01/21 04:20:48;;;;;;;;;20.00;18.25;;;;;-146.25;100.00;57879.81;5059175;28;45308;-72
2022/01/21 04:23:17;;;;;;;;;17.75;16.00;;;;;-146.25;100.00;57879.81;5059254;28;45182;-73
2022/01/21 04:25:43;;;;;;;;;20.25;19.00;;;;;-146.25;100.00;57879.81;5059133;28;45508;-73
2022/01/21 04:28:09;;;;;;;;;19.00;18.75;;;;;-146.25;100.00;57879.81;5059120;28;45407;-73
2022/01/21 04:30:36;;;;;;;;;19.50;16.25;;;;;-146.25;100.00;57879.81;5058807;28;45596;-73
2022/01/21 04:33:03;;;;;;;;;23.25;16.00;;;;;-146.25;100.00;57879.81;5059244;28;45438;-74
2022/01/21 04:35:29;;;;;;;;;21.25;18.00;;;;;-146.25;100.00;57879.81;5059242;28;45481;-73
2022/01/21 04:37:59;;;;;;;;;13.75;11.75;;;;;-146.25;100.00;57879.81;5059095;28;45345;-73
2022/01/21 04:40:29;;;;;;;;;24.00;20.00;;;;;-146.25;100.00;57879.81;5058774;28;45447;-73
2022/01/21 04:48:25;;;;;;;;;19.75;18.25;;;;;-146.25;100.00;57879.81;5058963;28;45429;-73
2022/01/21 04:50:56;;;;;;;;;21.50;15.25;;;;;-146.25;100.00;57879.81;5057249;28;47428;-73
2022/01/21 04:53:22;;;;;;;;;23.25;20.00;;;;;-146.25;100.00;57879.81;5058843;28;45492;-75
2022/01/21 04:55:48;;;;;;;;;20.50;17.50;;;;;-146.25;100.00;57879.81;5058649;28;45476;-73
2022/01/21 04:58:14;;;;;;;;;17.50;13.75;;;;;-146.25;100.00;57879.81;5058778;28;45493;-73
2022/01/21 05:00:40;;;;;;;;;18.25;15.75;;;;;-146.25;100.00;57879.81;5058442;28;46080;-73
2022/01/21 05:03:05;;;;;;;;;17.50;15.25;;;;;-146.25;100.00;57879.81;5058451;28;45853;-73
2022/01/21 05:05:31;;;;;;;;;18.50;16.25;;;;;-146.25;100.00;57879.81;5058757;28;45457;-73
2022/01/21 05:08:00;;;;;;;;;19.50;15.50;;;;;-146.25;100.00;57879.81;5058611;28;45382;-73
2022/01/21 05:10:27;;;;;;;;;13.00;11.25;;;;;-146.25;100.00;57879.81;5058433;28;45454;-73
2022/01/21 05:12:53;;;;;;;;;20.75;18.25;;;;;-146.25;100.00;57879.81;5058279;28;45410;-74
2022/01/21 05:15:40;;;;;;;;;18.50;16.25;;;;;-146.25;100.00;57879.81;5058403;28;45344;-73
2022/01/21 05:18:06;;;;;;;;;18.00;13.75;;;;;-146.25;100.00;57879.81;5058636;28;45519;-72
2022/01/21 05:20:32;;;;;;;;;18.25;16.00;;;;;-146.25;100.00;57879.81;5058431;28;45442;-72
2022/01/21 05:22:57;;;;;;;;;18.75;15.00;;;;;-146.25;100.00;57879.81;5057972;28;45430;-73
2022/01/21 05:25:23;;;;;;;;;16.00;13.25;;;;;-146.25;100.00;57879.81;5058244;28;45492;-73
2022/01/21 05:27:55;;;;;;;;;20.25;17.50;;;;;-146.25;100.00;57879.81;5058345;28;45538;-73
2022/01/21 05:30:20;;;;;;;;;16.50;13.00;;;;;-146.25;100.00;57879.81;5057798;28;46096;-73
2022/01/21 05:32:46;;;;;;;;;13.00;12.50;;;;;-146.25;100.00;57879.81;5057908;28;45414;-73
2022/01/21 05:35:12;;;;;;;;;10.25;10.25;;;;;-146.25;100.00;57879.81;5051673;28;45556;-74
2022/01/21 05:37:38;;;;;;;;;15.00;11.75;;;;;-146.25;100.00;57879.81;5046502;28;45449;-72
2022/01/21 05:40:07;;;;;;;;;14.75;13.25;;;;;-146.25;100.00;57879.81;5047502;28;45540;-72
2022/01/21 05:42:34;;;;;;;;;14.00;12.50;;;;;-146.25;100.00;57879.81;5048600;28;45292;-76
2022/01/21 05:47:26;;;;;;;;;19.00;16.00;;;;;-146.25;100.00;57879.81;5045450;28;45493;-73
2022/01/21 05:49:53;;;;;;;;;13.50;12.50;;;;;-146.25;100.00;57879.81;5043695;28;46099;-73
2022/01/21 05:52:20;;;;;;;;;17.50;13.25;;;;;-146.25;100.00;57879.81;5044769;28;45489;-72
2022/01/21 05:54:46;;;;;;;;;16.25;14.25;;;;;-146.25;100.00;57879.81;5045385;28;45438;-72
2022/01/21 05:57:15;;;;;;;;;14.00;13.00;;;;;-146.25;100.00;57879.81;5045135;28;45566;-72
2022/01/21 05:59:41;;;;;;;;;10.50;10.50;;;;;-146.25;100.00;57879.81;5046172;28;45501;-73
2022/01/21 06:02:08;;;;;;;;;14.75;13.75;;;;;-146.25;100.00;57879.81;5045476;28;45602;-72
2022/01/21 06:04:34;;;;;;;;;16.25;15.00;;;;;-146.25;100.00;57879.81;5045601;28;45516;-72
2022/01/21 06:07:00;;;;;;;;;14.75;13.00;;;;;-146.25;100.00;57879.81;5046935;28;45429;-72
2022/01/21 06:09:27;;;;;;;;;17.50;14.25;;;;;-146.25;100.00;57879.81;5045130;28;45491;-72
2022/01/21 06:11:53;;;;;;;;;14.50;13.00;;;;;-146.25;100.00;57879.81;5045419;28;45495;-72
2022/01/21 06:14:18;;;;;;;;;10.00;9.00;;;;;-146.25;100.00;57879.81;5046645;28;45354;-72
2022/01/21 06:16:44;;;;;;;;;13.00;12.75;;;;;-146.25;100.00;57879.81;5045438;28;45295;-74
2022/01/21 06:19:10;;;;;;;;;15.75;13.50;;;;;-146.25;100.00;57879.81;5045512;28;45489;-72
2022/01/21 06:21:35;;;;;;;;;12.75;11.00;;;;;-146.25;100.00;57879.81;5046507;28;45466;-73
2022/01/21 06:24:01;;;;;;;;;12.50;9.75;;;;;-146.25;100.00;57879.81;5044489;28;45355;-73
2022/01/21 06:26:26;;;;;;;;;11.50;11.00;;;;;-146.25;100.00;57879.81;5046083;28;45504;-73
2022/01/21 06:28:52;;;;;;;;;13.25;11.75;;;;;-146.25;100.00;57879.81;5045391;28;45497;-72
2022/01/21 06:31:17;;;;;;;;;21.25;18.50;;;;;-146.25;100.00;57879.81;5044509;28;45827;-73
2022/01/21 06:33:43;;;;;;;;;13.25;12.50;;;;;-146.25;100.00;57879.81;5046554;28;45557;-73
2022/01/21 06:36:08;;;;;;;;;15.75;14.75;;;;;-146.25;100.00;57879.81;5045262;28;45517;-74
2022/01/21 06:38:35;;;;;;;;;22.50;17.75;;;;;-146.25;100.00;57879.81;5044813;28;45537;-72
2022/01/21 06:41:01;;;;;;;;;20.75;15.50;;;;;-146.25;100.00;57879.81;5043910;28;45411;-73
2022/01/21 06:43:27;;;;;;;;;16.00;15.50;;;;;-146.25;100.00;57879.81;5045691;28;45483;-74
2022/01/21 06:45:53;;;;;;;;;23.00;19.00;;;;;-146.25;100.00;57879.81;5045571;28;45354;-72
2022/01/21 06:48:18;;;;;;;;;17.25;15.25;;;;;-146.25;100.00;57879.81;5046952;28;46329;-73
2022/01/21 06:50:44;;;;;;;;;19.75;18.25;;;;;-146.25;100.00;57879.81;5044066;28;45389;-72
2022/01/21 06:53:10;;;;;;;;;12.00;11.50;;;;;-146.25;100.00;57879.81;5045461;28;45503;-73
2022/01/21 06:55:36;;;;;;;;;22.00;19.00;;;;;-146.25;100.00;57879.81;5044040;28;45359;-73
2022/01/21 06:58:03;;;;;;;;;38.50;35.75;;;;;-146.25;100.00;57879.81;5035664;28;46122;-73
2022/01/21 07:00:28;;;;;;;;;36.75;29.75;;;;;-146.25;100.00;57879.81;5036563;28;45445;-72
2022/01/21 07:02:54;;;;;;;;;31.00;28.25;;;;;-146.25;100.00;57879.81;5036713;28;45201;-73
2022/01/21 07:05:25;;;;;;;;;27.50;23.50;;;;;-146.25;100.00;57879.81;5036687;28;45413;-73
2022/01/21 07:07:51;;;;;;;;;45.25;41.25;;;;;-146.25;100.00;57879.81;5036515;28;46042;-73
2022/01/21 07:10:17;;;;;;;;;42.50;36.50;;;;;-146.25;100.00;57879.81;5037689;28;45576;-73
2022/01/21 07:12:44;;;;;;;;;33.25;28.75;;;;;-146.25;100.00;57879.81;5040229;28;45476;-73
2022/01/21 07:15:15;;;;;;;;;83.00;57.75;;;;;-146.25;100.00;57879.81;5040089;28;45493;-73
2022/01/21 07:17:42;;;;;;;;;108.67;82.00;;;;;-146.25;100.00;57879.81;5039871;28;46264;-73
2022/01/21 07:20:08;;;;;;;;;34.75;30.00;;;;;-146.25;100.00;57879.81;5040226;28;45551;-73
2022/01/21 07:22:33;;;;;;;;;86.25;61.75;;;;;-146.25;100.00;57879.81;5039913;28;45493;-73
2022/01/21 07:24:59;;;;;;;;;71.25;54.75;;;;;-146.25;100.00;57879.81;5040037;28;45551;-73
2022/01/21 07:27:24;;;;;;;;;84.75;63.75;;;;;-146.25;100.00;57879.81;5039917;28;45931;-73
2022/01/21 07:29:50;;;;;;;;;74.50;58.00;;;;;-146.25;100.00;57879.81;5039739;28;45785;-73
2022/01/21 07:32:16;;;;;;;;;45.75;42.00;;;;;-146.25;100.00;57879.81;5039638;28;45300;-73
2022/01/21 07:34:42;;;;;;;;;91.33;69.67;;;;;-146.25;100.00;57879.81;5040171;28;45389;-72
2022/01/21 07:37:07;;;;;;;;;71.25;54.00;;;;;-146.25;100.00;57879.81;5043950;28;45954;-73
2022/01/21 07:39:33;;;;;;;;;49.00;41.75;;;;;-146.25;100.00;57879.81;5048167;28;45471;-72
2022/01/21 07:41:58;;;;;;;;;52.75;46.00;;;;;-146.25;100.00;57879.81;5048475;28;45471;-72
2022/01/21 07:44:24;;;;;;;;;126.00;107.33;;;;;-146.25;100.00;57879.81;5047153;28;45515;-73
2022/01/21 07:46:50;;;;;;;;;183.75;138.75;;;;;-146.25;100.00;57879.81;5049621;28;46148;-73
2022/01/21 07:49:16;;;;;;;;;75.00;57.25;;;;;-146.25;100.00;57879.81;5047751;28;45528;-72
2022/01/21 07:51:42;;;;;;;;;107.33;83.00;;;;;-146.25;100.00;57879.81;5048976;28;45520;-72
2022/01/21 07:54:10;;;;;;;;;120.33;102.67;;;;;-146.25;100.00;57879.81;5047437;28;45507;-72
2022/01/21 07:56:36;;;;;;;;;50.00;43.75;;;;;-146.25;100.00;57879.81;5047631;28;45478;-73
2022/01/21 07:59:08;;;;;;;;;74.75;59.50;;;;;-146.25;100.00;57879.81;5048622;28;45520;-73
2022/01/21 08:01:34;;;;;;;;;28.00;25.50;;;;;-146.25;100.00;57879.81;5048752;28;45443;-73
2022/01/21 08:04:01;;;;;;;;;30.50;26.50;;;;;-146.25;100.00;57879.81;5045520;28;45498;-73
2022/01/21 08:06:26;;;;;;;;;36.00;31.00;;;;;-146.25;100.00;57879.81;5048187;28;45540;-73
2022/01/21 08:08:54;;;;;;;;;35.00;32.00;;;;;-146.25;100.00;57879.81;5049333;28;45346;-73
2022/01/21 08:11:20;;;;;;;;;27.75;22.75;;;;;-146.25;100.00;57879.81;5046863;28;45804;-74
2022/01/21 08:13:46;;;;;;;;;34.75;34.00;;;;;-146.25;100.00;57879.81;5046863;28;45366;-73
2022/01/21 08:16:11;;;;;;;;;37.75;36.25;;;;;-146.25;100.00;57879.81;5046422;28;45303;-72
2022/01/21 08:18:37;;;;;;;;;37.25;32.25;;;;;-146.25;100.00;57879.81;5048396;28;45525;-72
2022/01/21 08:21:03;;;;;;;;;34.50;32.50;;;;;-146.25;100.00;57879.81;5046643;28;45383;-73
2022/01/21 08:23:29;;;;;;;;;14.75;11.00;;;;;-146.25;100.00;57879.81;5062630;28;45367;-73
2022/01/21 08:25:54;;;;;;;;;9.25;7.25;;;;;-146.25;100.00;57879.81;5045891;28;45489;-76
2022/01/21 08:28:20;;;;;;;;;39.25;32.50;;;;;-146.25;100.00;57879.81;5048102;28;45470;-73
2022/01/21 08:30:46;;;;;;;;;13.75;12.75;;;;;-146.25;100.00;57879.81;5047454;28;45727;-72
2022/01/21 08:33:11;;;;;;;;;16.75;12.00;;;;;-146.25;100.00;57879.81;5046540;28;45597;-75
2022/01/21 08:35:37;;;;;;;;;28.50;19.50;;;;;-146.25;100.00;57879.81;5047513;28;45956;-73
2022/01/21 08:38:04;;;;;;;;;67.75;50.50;;;;;-146.25;100.00;57879.81;5046972;28;45546;-73
2022/01/21 08:40:30;;;;;;;;;23.25;20.75;;;;;-146.25;100.00;57879.81;5047916;28;45616;-73
2022/01/21 08:42:55;;;;;;;;;20.50;19.50;;;;;-146.25;100.00;57879.81;5046211;28;45549;-77
2022/01/21 08:45:22;;;;;;;;;41.25;35.25;;;;;-146.25;100.00;57879.81;5047235;28;45687;-75
2022/01/21 08:47:48;;;;;;;;;25.50;22.00;;;;;-146.25;100.00;57879.81;5047469;28;45890;-75
2022/01/21 08:50:18;;;;;;;;;12.00;11.50;;;;;-146.25;100.00;57879.81;5045707;28;45418;-75
2022/01/21 08:52:45;;;;;;;;;10.25;9.00;;;;;-146.25;100.00;57879.81;5047104;28;45519;-75
2022/01/21 08:55:19;;;;;;;;;12.00;9.00;;;;;-146.25;100.00;57879.81;5047997;28;46234;-75
2022/01/21 08:57:47;;;;;;;;;10.50;9.75;;;;;-146.25;100.00;57879.81;5046774;28;45532;-75
2022/01/21 09:00:21;;;;;;;;;11.25;8.25;;;;;-146.25;100.00;57879.81;5047074;28;45374;-73
2022/01/21 09:02:47;;;;;;;;;1.25;0.75;;;;;-146.25;100.00;57879.81;5044613;28;45485;-73
2022/01/21 09:05:13;;;;;;;;;15.75;14.25;;;;;-146.25;100.00;57879.81;5044762;28;45580;-73
2022/01/21 09:07:40;;;;;;;;;31.25;24.00;;;;;-146.25;100.00;57879.81;5046818;28;45502;-73
2022/01/21 09:10:09;;;;;;;;;5.25;4.00;;;;;-146.25;100.00;57879.81;5046596;28;45749;-74
2022/01/21 09:12:35;;;;;;;;;7.00;7.00;;;;;-146.25;100.00;57879.81;5053990;28;45473;-75
2022/01/21 09:15:01;;;;;;;;;4.75;4.75;;;;;-146.25;100.00;57879.81;5055556;28;45504;-74
2022/01/21 09:17:27;;;;;;;;;5.75;5.00;;;;;-146.25;100.00;57879.81;5048087;28;45510;-77
2022/01/21 09:19:53;;;;;;;;;12.00;9.25;;;;;-146.25;100.00;57879.81;5050032;28;45381;-74
2022/01/21 09:22:20;;;;;;;;;6.00;6.00;;;;;-146.25;100.00;57879.81;5047232;28;46235;-73
2022/01/21 09:24:45;;;;;;;;;6.00;4.75;;;;;-146.25;100.00;57879.81;5045803;28;46034;-73
2022/01/21 09:27:11;;;;;;;;;10.25;10.25;;;;;-146.25;100.00;57879.81;5044379;28;45927;-73
2022/01/21 09:29:36;;;;;;;;;6.25;6.00;;;;;-146.25;100.00;57879.81;5046394;28;45563;-74
2022/01/21 09:32:04;;;;;;;;;5.75;5.25;;;;;-146.25;100.00;57879.81;5056755;28;45592;-74
2022/01/21 09:34:31;;;;;;;;;4.75;4.50;;;;;-146.25;100.00;57879.81;5048622;28;45599;-74
2022/01/21 09:36:59;;;;;;;;;6.50;5.50;;;;;-146.25;100.00;57879.81;5045786;28;45529;-74
2022/01/21 09:39:27;;;;;;;;;7.50;7.00;;;;;-146.25;100.00;57879.81;5047394;28;45423;-73
2022/01/21 09:41:58;;;;;;;;;8.25;6.00;;;;;-146.25;100.00;57879.81;5053694;28;45352;-76
2022/01/21 09:44:24;;;;;;;;;9.75;9.75;;;;;-146.25;100.00;57879.81;5047121;28;45513;-73
2022/01/21 09:46:51;;;;;;;;;9.00;8.25;;;;;-146.25;100.00;57879.81;5045536;28;45552;-75
2022/01/21 09:49:27;;;;;;;;;6.67;6.67;;;;;-146.25;100.00;57879.81;5044248;28;45471;-76
2022/01/21 09:52:02;;;;;;;;;10.00;10.00;;;;;-146.25;100.00;57879.81;5047177;28;45359;-84
2022/01/21 09:54:31;;;;;;;;;4.33;3.33;;;;;-146.25;100.00;57879.81;5046982;28;46678;-75
2022/01/21 09:56:58;;;;;;;;;11.00;9.00;;;;;-146.25;100.00;57879.81;5044550;28;45490;-75
2022/01/21 09:59:26;;;;;;;;;10.00;10.00;;;;;-146.25;100.00;57879.81;5046466;28;45439;-75
2022/01/21 10:01:56;;;;;;;;;7.00;5.67;;;;;-146.25;100.00;57879.81;5045727;28;45381;-75
2022/01/21 10:04:26;;;;;;;;;6.00;6.00;;;;;-146.25;100.00;57879.81;5061124;28;46233;-75
2022/01/21 10:06:54;;;;;;;;;12.67;11.00;;;;;-146.25;100.00;57879.81;5060023;28;45316;-75
2022/01/21 10:09:21;;;;;;;;;11.00;10.33;;;;;-146.25;100.00;57879.81;5059104;28;45255;-73
2022/01/21 10:11:51;;;;;;;;;6.33;6.00;;;;;-146.25;100.00;57879.81;5044144;28;45573;-71
2022/01/21 10:14:21;;;;;;;;;4.67;4.00;;;;;-146.25;100.00;57879.81;5058072;28;44962;-75
2022/01/21 10:16:48;;;;;;;;;7.33;6.00;;;;;-146.25;100.00;57879.81;5060574;28;44756;-72
2022/01/21 10:19:24;;;;;;;;;7.00;7.00;;;;;-146.25;100.00;57879.81;5064381;28;44725;-73
2022/01/21 10:21:58;;;;;;;;;8.33;8.00;;;;;-146.25;100.00;57879.81;5072114;28;44809;-72
2022/01/21 10:24:24;;;;;;;;;6.00;4.33;;;;;-146.25;100.00;57879.81;5079999;28;45100;-71
2022/01/21 10:26:52;;;;;;;;;10.00;6.00;;;;;-146.25;100.00;57879.81;5057454;28;45516;-73
2022/01/21 10:29:20;;;;;;;;;7.33;6.00;;;;;-146.25;100.00;57879.81;5057023;28;45351;-73
2022/01/21 10:31:58;;;;;;;;;5.00;4.33;;;;;-146.25;100.00;57879.81;5057382;28;45429;-72
2022/01/21 10:34:35;;;;;;;;;7.00;6.00;;;;;-146.25;100.00;57879.81;5056759;28;45747;-73
2022/01/21 10:37:07;;;;;;;;;8.00;6.00;;;;;-146.25;100.00;57879.81;5056686;28;45426;-71
2022/01/21 10:40:15;;;;;;;;;11.33;11.33;;;;;-146.25;100.00;57879.81;5056772;28;45445;-72
2022/01/21 10:42:41;;;;;;;;;10.33;10.00;;;;;-146.25;100.00;57879.81;5057154;28;45239;-72
2022/01/21 10:45:08;;;;;;;;;13.33;9.00;;;;;-146.25;100.00;57879.81;5056071;28;45322;-72
2022/01/21 10:47:37;;;;;;;;;8.67;8.67;;;;;-146.25;100.00;57879.81;5056443;28;45456;-73
2022/01/21 10:50:16;;;;;;;;;7.00;7.00;;;;;-146.25;100.00;57879.81;5056759;28;45450;-72
2022/01/21 10:52:51;;;;;;;;;2.67;2.67;;;;;-146.25;100.00;57879.81;5056472;28;45372;-72
2022/01/21 10:55:37;;;;;;;;;4.33;4.00;;;;;-146.25;100.00;57879.81;5056099;28;46069;-72
2022/01/21 10:58:15;;;;;;;;;5.00;5.00;;;;;-146.25;100.00;57879.81;5056344;28;45385;-72
2022/01/21 11:01:02;;;;;;;;;7.00;6.00;;;;;-146.25;100.00;57879.81;5056644;28;45363;-74
2022/01/21 11:03:29;;;;;;;;;14.00;12.25;;;;;-146.25;100.00;57879.81;5056152;28;45423;-73
2022/01/21 11:06:09;;;;;;;;;4.25;4.25;;;;;-146.25;100.00;57879.81;5055843;28;46640;-72
2022/01/21 11:08:34;;;;;;;;;8.67;5.00;;;;;-146.25;100.00;57879.81;5055900;28;45696;-72
2022/01/21 11:11:02;;;;;;;;;6.00;4.50;;;;;-146.25;100.00;57879.81;5055984;28;45385;-71
2022/01/21 11:13:29;;;;;;;;;3.75;3.00;;;;;-146.25;100.00;57879.81;5056055;28;45496;-73
2022/01/21 11:16:06;;;;;;;;;4.25;4.00;;;;;-146.25;100.00;57879.81;5055709;28;46145;-71
2022/01/21 11:18:33;;;;;;;;;4.00;3.00;;;;;-146.25;100.00;57879.81;5055922;28;45503;-71
2022/01/21 11:21:08;;;;;;;;;6.00;5.00;;;;;-146.25;100.00;57879.81;5056054;28;45317;-72
2022/01/21 11:23:36;;;;;;;;;3.25;3.25;;;;;-146.25;100.00;57879.81;5056114;28;45901;-72
2022/01/21 11:26:03;;;;;;;;;5.00;5.00;;;;;-146.25;100.00;57879.81;5055680;28;46149;-72
2022/01/21 11:28:50;;;;;;;;;7.00;7.00;;;;;-146.25;100.00;57879.81;5055942;28;45344;-71
2022/01/21 11:31:21;;;;;;;;;6.00;6.00;;;;;-146.25;100.00;57879.81;5056187;28;45358;-71
2022/01/21 11:33:47;;;;;;;;;7.25;5.75;;;;;-146.25;100.00;57879.81;5055905;28;45378;-71
2022/01/21 11:36:14;;;;;;;;;7.25;6.50;;;;;-146.25;100.00;57879.81;5055893;28;45379;-71
2022/01/21 11:38:44;;;;;;;;;8.50;7.25;;;;;-146.25;100.00;57879.81;5056169;28;45258;-71
2022/01/21 11:41:13;;;;;;;;;27.75;24.25;;;;;-146.25;100.00;57879.81;5056212;28;45445;-72
2022/01/21 11:43:49;;;;;;;;;10.25;9.50;;;;;-146.25;100.00;57879.81;5055525;28;45440;-71
2022/01/21 11:49:00;;;;;;;;;12.75;10.25;;;;;-146.25;100.00;57879.81;5055327;28;45889;-71
2022/01/21 11:51:32;;;;;;;;;12.25;10.50;;;;;-146.25;100.00;57879.81;5055515;28;45291;-72
2022/01/21 11:54:13;;;;;;;;;9.50;9.50;;;;;-146.25;100.00;57879.81;5055910;28;45369;-72